Makarewa, New Zealand
Current Conditions -  °F | °C
As of 6:30 AM on Wednesday 22 Oct 2014 (Local Time) from NZCH Reporting Station
Broken Clouds Broken Clouds  
Wind Chill: 41°   Ceiling: 1800
Heat Index: 41°   Visibility: 6mi
Dew Point: 41°   Wind: 1mph
Humidity: 100%   Direction: 360°N
Pressure: 30.18"   Gusts: NA
Location:  46.33°S, 168.35°E
Report Text: NZCH 211830Z AUTO 36001KT 9999 BKN018/// 05/05 Q1022 NOSIG
Loading
Personal Weather Stations






























Interactive Weather Map
Tropical Storm Tracking
New forecast layout! Learn more

10-Day Weather Forecast

Advertisements
Track Severe Weather on mobile